createdAt,value
2022-09-03T00:08:55.609Z,1.33
2022-09-03T00:17:21.856Z,1.60
2022-09-03T00:28:21.858Z,1.60
2022-09-03T00:39:37.072Z,1.50
2022-09-03T00:42:27.095Z,1.50
2022-09-03T00:45:18.108Z,1.77
2022-09-03T00:57:54.966Z,1.50
2022-09-03T01:00:26.050Z,1.73
2022-09-03T01:03:08.706Z,1.30
2022-09-03T01:06:01.780Z,1.60
2022-09-03T01:08:51.266Z,1.40
2022-09-03T01:11:30.042Z,1.70
2022-09-03T01:14:08.352Z,1.73
2022-09-03T01:16:47.928Z,1.57
2022-09-03T01:19:49.065Z,1.23
2022-09-03T01:22:42.076Z,1.57
2022-09-03T01:25:22.061Z,1.60
2022-09-03T01:28:06.783Z,1.50
2022-09-03T01:30:43.053Z,1.47
2022-09-03T01:33:19.744Z,1.60
2022-09-03T01:35:50.156Z,1.37
2022-09-03T01:38:28.466Z,1.67
2022-09-03T01:41:21.710Z,1.63
2022-09-03T01:44:00.367Z,1.80
2022-09-03T01:46:35.859Z,1.57
2022-09-03T02:26:13.099Z,1.77
2022-09-03T02:28:42.706Z,1.80
2022-09-03T02:31:11.085Z,1.97
2022-09-03T02:33:42.370Z,1.70
2022-09-03T02:36:13.399Z,1.67
2022-09-03T02:38:43.561Z,1.50
2022-09-03T02:41:15.492Z,1.80
2022-09-03T02:43:47.218Z,1.50
2022-09-03T02:46:21.659Z,1.47
2022-09-03T02:48:50.343Z,1.70
2022-09-03T02:51:18.742Z,1.90
2022-09-03T02:55:10.394Z,1.43
2022-09-03T03:07:50.921Z,1.30
2022-09-03T03:12:03.387Z,1.43
2022-09-03T03:16:00.542Z,1.60
2022-09-03T03:18:58.361Z,1.60
2022-09-03T03:23:39.434Z,1.57
2022-09-03T03:26:57.559Z,1.43
2022-09-03T03:30:20.197Z,1.43
2022-09-03T03:34:14.932Z,1.43
2022-09-03T03:51:19.475Z,1.60
2022-09-03T03:55:47.808Z,1.30
2022-09-03T03:59:58.787Z,1.17
2022-09-03T04:06:28.626Z,1.40
2022-09-03T04:09:02.572Z,1.50
2022-09-03T04:11:32.470Z,1.97
2022-09-03T04:14:00.960Z,1.50
2022-09-03T04:16:29.632Z,1.60
2022-09-03T04:18:58.853Z,1.60
2022-09-03T04:21:28.840Z,1.80
2022-09-03T04:23:58.540Z,1.63
2022-09-03T04:26:31.464Z,1.50
2022-09-03T04:29:04.258Z,1.40
2022-09-03T04:31:40.145Z,1.80
2022-09-03T04:34:08.278Z,1.97
2022-09-03T04:36:37.632Z,1.40
2022-09-03T04:39:08.573Z,1.53
2022-09-03T04:41:39.307Z,1.70
2022-09-03T04:44:34.177Z,1.60
2022-09-03T04:47:18.985Z,1.40
2022-09-03T04:50:19.016Z,1.93
2022-09-03T04:53:52.334Z,1.70
2022-09-03T04:56:24.033Z,1.70
2022-09-03T04:58:56.945Z,1.80
2022-09-03T05:01:29.575Z,2.00
2022-09-03T05:03:59.868Z,2.00
2022-09-03T05:06:35.072Z,1.90
2022-09-03T05:09:06.718Z,1.60
2022-09-03T05:11:35.558Z,1.77
2022-09-03T05:14:05.975Z,1.60
2022-09-03T05:16:54.721Z,1.80
2022-09-03T05:19:58.475Z,1.70
2022-09-03T05:22:53.445Z,1.80
2022-09-03T05:25:41.277Z,1.80
2022-09-03T05:28:29.532Z,1.83
2022-09-03T05:31:09.434Z,1.60
2022-09-03T05:33:42.845Z,1.73
2022-09-03T05:36:14.329Z,1.50
2022-09-03T05:38:45.447Z,1.80
2022-09-03T05:41:17.638Z,1.93
2022-09-03T05:44:02.212Z,1.70
2022-09-03T05:46:47.013Z,1.70
2022-09-03T05:49:33.643Z,1.60
2022-09-03T05:52:10.231Z,1.43
2022-09-03T05:54:57.919Z,1.77
2022-09-03T05:57:26.903Z,1.47
2022-09-03T06:00:03.714Z,1.40
2022-09-03T06:02:52.294Z,1.40
2022-09-03T06:05:23.089Z,1.60
2022-09-03T06:07:57.118Z,1.50
2022-09-03T06:15:06.174Z,1.33
2022-09-03T06:19:08.655Z,1.27
2022-09-03T06:26:24.459Z,1.37
2022-09-03T06:47:41.078Z,1.70
2022-09-03T07:31:44.968Z,1.63
2022-09-03T07:34:23.461Z,2.17
2022-09-03T07:37:30.242Z,2.23
2022-09-03T07:40:18.681Z,2.47
2022-09-03T07:43:59.435Z,2.37
2022-09-03T07:47:50.573Z,2.30
2022-09-03T08:30:19.840Z,2.90
2022-09-03T08:32:50.700Z,3.00
2022-09-03T08:35:21.623Z,3.00
2022-09-03T08:37:56.883Z,2.70
2022-09-03T08:40:26.281Z,2.77
2022-09-03T08:43:12.937Z,2.53
2022-09-03T08:45:47.706Z,3.00
2022-09-03T08:48:25.605Z,2.90
2022-09-03T08:51:00.939Z,3.60
2022-09-03T08:53:41.209Z,3.20
2022-09-03T08:56:12.500Z,3.00
2022-09-03T08:58:44.152Z,3.00
2022-09-03T09:01:19.940Z,2.60
2022-09-03T09:03:56.695Z,3.60
2022-09-03T09:06:35.612Z,3.60
2022-09-03T09:09:14.019Z,2.87
2022-09-03T09:11:51.971Z,3.07
2022-09-03T09:14:26.475Z,3.30
2022-09-03T09:17:09.953Z,3.07
2022-09-03T09:19:50.775Z,3.00
2022-09-03T09:22:28.775Z,3.17
2022-09-03T09:25:01.083Z,3.70
2022-09-03T09:27:43.020Z,2.73
2022-09-03T09:30:27.089Z,2.93
2022-09-03T09:33:21.331Z,2.87
2022-09-03T09:36:29.998Z,3.03
2022-09-03T09:39:36.177Z,3.13
2022-09-03T09:42:13.890Z,3.13
2022-09-03T09:44:50.922Z,3.20
2022-09-03T09:47:34.346Z,3.00
2022-09-03T09:54:44.465Z,3.40
2022-09-03T10:05:35.023Z,3.67
2022-09-03T10:08:24.053Z,3.50
2022-09-03T10:11:08.075Z,3.90
2022-09-03T10:14:05.234Z,3.77
2022-09-03T10:16:48.511Z,3.80
2022-09-03T10:19:29.193Z,3.20
2022-09-03T10:22:09.364Z,3.57
2022-09-03T10:24:58.009Z,3.67
2022-09-03T10:27:32.028Z,3.70
2022-09-03T10:30:08.906Z,3.67
2022-09-03T10:32:48.563Z,3.87
2022-09-03T10:35:51.884Z,3.23
2022-09-03T10:38:40.788Z,3.30
2022-09-03T10:41:40.631Z,3.10
2022-09-03T10:45:14.500Z,3.70
2022-09-03T10:48:16.196Z,3.77
2022-09-03T10:54:30.970Z,3.43
2022-09-03T10:57:15.769Z,3.13
2022-09-03T11:00:18.728Z,3.17
2022-09-03T11:03:26.319Z,3.10
2022-09-03T11:06:07.501Z,3.10
2022-09-03T11:08:44.984Z,3.07
2022-09-03T11:11:28.319Z,2.70
2022-09-03T11:14:09.518Z,2.97
2022-09-03T11:16:43.612Z,3.30
2022-09-03T11:19:17.068Z,3.07
2022-09-03T11:21:49.069Z,3.10
2022-09-03T11:24:24.398Z,3.07
2022-09-03T11:27:18.503Z,3.10
2022-09-03T11:30:08.616Z,2.80
2022-09-03T11:38:19.280Z,3.30
2022-09-03T13:17:11.495Z,3.07
2022-09-03T13:34:10.749Z,3.43
2022-09-03T14:09:15.297Z,3.00
2022-09-03T14:12:15.868Z,2.97
2022-09-03T14:15:31.635Z,2.80
2022-09-03T14:19:01.153Z,2.57
2022-09-03T14:22:18.188Z,2.80
2022-09-03T14:30:37.953Z,3.00
2022-09-03T14:51:19.649Z,3.33
2022-09-03T14:55:39.310Z,2.80
2022-09-03T14:59:28.246Z,3.30
2022-09-03T15:07:42.930Z,3.80
2022-09-03T15:28:47.170Z,4.00
2022-09-03T15:33:21.087Z,3.60
2022-09-03T15:38:13.316Z,3.97
2022-09-03T15:41:34.662Z,2.90
2022-09-03T15:45:13.259Z,2.90
2022-09-03T15:49:43.705Z,2.57
2022-09-03T15:53:39.574Z,1.90
2022-09-03T16:29:56.690Z,0.67
2022-09-03T16:42:25.250Z,0.83
2022-09-03T16:45:06.849Z,0.90
2022-09-03T16:47:49.434Z,0.90
2022-09-03T16:50:30.965Z,1.00
2022-09-03T16:53:14.411Z,0.80
2022-09-03T16:55:59.866Z,0.87
2022-09-03T16:58:49.530Z,0.93
2022-09-03T17:01:35.125Z,0.80
2022-09-03T17:04:52.734Z,0.93
2022-09-03T17:08:25.728Z,0.97
2022-09-03T17:11:16.693Z,0.93
2022-09-03T17:14:03.992Z,0.80
2022-09-03T17:16:46.822Z,0.90
2022-09-03T17:19:26.174Z,0.93
2022-09-03T17:22:28.821Z,0.90
2022-09-03T17:26:51.215Z,0.90
2022-09-03T17:34:16.378Z,1.20
2022-09-03T18:05:23.489Z,1.40
2022-09-03T18:09:27.526Z,1.17
2022-09-03T18:23:30.803Z,1.40
2022-09-03T19:10:31.703Z,1.33
2022-09-03T19:38:58.767Z,1.63
2022-09-03T20:30:37.434Z,1.60
2022-09-03T20:54:46.768Z,1.40
2022-09-03T21:04:55.894Z,1.50
2022-09-03T21:08:42.890Z,1.50
2022-09-03T21:11:55.687Z,1.80
2022-09-03T21:14:55.719Z,1.67
2022-09-03T21:18:06.829Z,1.50
2022-09-03T21:28:48.841Z,1.57
2022-09-03T21:35:40.465Z,1.83
2022-09-03T21:45:16.631Z,1.40
2022-09-03T21:49:02.393Z,1.30
2022-09-03T21:52:32.354Z,1.40
2022-09-03T21:55:54.785Z,1.50
2022-09-03T21:58:55.682Z,1.30
2022-09-03T22:02:11.826Z,1.10
2022-09-03T22:05:30.221Z,1.30
2022-09-03T22:20:58.049Z,1.50
2022-09-03T22:30:24.470Z,1.80
2022-09-03T22:50:02.380Z,1.50
2022-09-03T22:53:14.089Z,1.90
2022-09-03T22:56:28.349Z,1.50
2022-09-03T22:59:45.719Z,1.60
2022-09-03T23:02:59.830Z,1.70
2022-09-03T23:06:04.335Z,2.00
2022-09-03T23:13:33.142Z,1.70
2022-09-03T23:17:10.527Z,1.70
2022-09-03T23:26:46.504Z,1.57
2022-09-03T23:29:43.515Z,1.80
2022-09-03T23:32:56.100Z,1.93
2022-09-03T23:36:09.672Z,1.53
2022-09-03T23:50:19.858Z,1.70
2022-09-03T23:53:18.263Z,1.70
2022-09-03T23:57:05.036Z,1.63
